Fort Shaw, Montana
Current Conditions -  °F | °C
As of 11:53 PM on Wednesday 22 Oct 2014 (Local Time) from KGTF Reporting Station
Clear Clear  
Wind Chill: 51°   Ceiling: Unl
Heat Index: 51°   Visibility: 10mi
Dew Point: 32°   Wind: 18mph
Humidity: 48%   Direction: 200°SSW
Pressure: 29.84"   Gusts: 24mph
Location:  47.51°N, 111.82°W
Report Text: KGTF 230553Z 20016G21KT 10SM CLR 11/00 A2984 RMK AO2 SLP102 T01060000 10133 20078 58015
Loading
Personal Weather Stations






























Interactive Weather Map
Tropical Storm Tracking
New forecast layout! Learn more

10-Day Weather Forecast

Advertisements
Track Severe Weather on mobile